Edenburg, Pennsylvania
Current Conditions -  °F | °C
As of 1:54 PM on Friday 24 Oct 2014 (Local Time) from KRDG Reporting Station
Clear Clear  
Wind Chill: 68°   Ceiling: Unl
Heat Index: 68°   Visibility: 10mi
Dew Point: 44°   Wind: 17mph
Humidity: 42%   Direction: 300°WNW
Pressure: 29.85"   Gusts: 24mph
Location:  40.5494°N, 75.999°W
Report Text: KRDG 241754Z 30015G21KT 10SM CLR 20/07 A2985 RMK AO2 RAE15 SLP110 P0000 60000 T02000067 10200 20133 58014
Loading
Personal Weather Stations






























Interactive Weather Map
Tropical Storm Tracking
New forecast layout! Learn more

10-Day Weather Forecast

Advertisements
Track Severe Weather on mobile